Terminal Aerodrome Forecast
Issued by NWS

Home | Current Version | Previous Version | Text Only | Print | Product List | Glossary On
Versions: 1 2 3 4 5 6 7 8 9 10 11 12 13 14 15 16 17 18 19 20 21 22 23 24 25 26 27 28 29
000
FTUS43 KMKX 060520
TAFUES
TAF
KUES 060520Z 0606/0706 19004KT P6SM SKC
     FM061500 19008KT P6SM FEW250
     FM061800 19012G21KT P6SM SCT250
     FM070100 20012G21KT 5SM -TSRA BKN035CB OVC090
     FM070300 21008KT 3SM TSRA SCT015 OVC035CB
     FM070500 25008KT 3SM -SHRA OVC025=

USA.gov is the U.S. government's official web portal to all federal, state and local government web resources and services.